Time;durP1;ratioP1;P1;durP2;ratioP2;P2;SDS_P1;SDS_P2;PMS_P1;PMS_P2;Temp;Humidity;BMP_temperature;BMP_pressure;BME280_temperature;BME280_humidity;BME280_pressure;Samples;Min_cycle;Max_cycle;Signal;HPM_P1;HPM_P2
2023/08/04 00:01:16;;;;;;;13.55;13.15;;;;;;;-141.02;100.00;40068.78;5133979;27;20197;-61
2023/08/04 00:03:43;;;;;;;13.32;12.93;;;;;;;-141.02;100.00;40064.97;5134298;27;20220;-66
2023/08/04 00:06:12;;;;;;;13.15;12.75;;;;;;;-141.02;100.00;40068.78;5133902;27;20224;-59
2023/08/04 00:08:39;;;;;;;13.05;12.65;;;;;;;-141.02;100.00;40091.81;5133848;27;20749;-59
2023/08/04 00:11:06;;;;;;;13.40;13.00;;;;;;;-141.02;100.00;40022.75;5133829;27;20214;-61
2023/08/04 00:13:34;;;;;;;12.95;12.55;;;;;;;-141.02;100.00;40034.28;5134143;27;20252;-59
2023/08/04 00:16:07;;;;;;;13.00;12.60;;;;;;;-141.02;100.00;40009.34;5133758;27;20243;-60
2023/08/04 00:18:35;;;;;;;12.90;12.50;;;;;;;-141.02;100.00;40022.75;5133589;27;20710;-62
2023/08/04 00:21:02;;;;;;;13.20;12.80;;;;;;;-141.02;100.00;40040.03;5133969;27;20228;-65
2023/08/04 00:23:30;;;;;;;13.18;12.77;;;;;;;-141.02;100.00;40049.63;5133966;27;20227;-61
2023/08/04 00:25:57;;;;;;;13.40;13.00;;;;;;;-141.02;100.00;40051.53;5133576;27;20662;-59
2023/08/04 00:28:24;;;;;;;13.50;13.10;;;;;;;-141.02;100.00;40051.53;5133826;27;20196;-58
2023/08/04 00:30:51;;;;;;;13.63;13.23;;;;;;;-141.02;100.00;40047.69;5133468;27;20287;-66
2023/08/04 00:33:18;;;;;;;13.45;13.05;;;;;;;-141.02;100.00;40068.78;5133459;27;20197;-63
2023/08/04 00:35:45;;;;;;;14.02;13.52;;;;;;;-141.02;100.00;40091.81;5133395;27;20725;-59
2023/08/04 00:38:12;;;;;;;13.82;13.43;;;;;;;-141.02;100.00;40103.31;5133602;27;20318;-65
2023/08/04 00:40:40;;;;;;;14.02;13.52;;;;;;;-141.02;100.00;40101.41;5133395;27;20678;-64
2023/08/04 00:43:07;;;;;;;13.85;13.43;;;;;;;-141.02;100.00;40095.66;5133579;27;20192;-65
2023/08/04 00:45:36;;;;;;;14.02;13.52;;;;;;;-141.02;100.00;40128.25;5133058;27;20730;-60
2023/08/04 00:48:03;;;;;;;13.85;13.45;;;;;;;-141.02;100.00;40114.84;5133284;27;20227;-62
2023/08/04 00:50:32;;;;;;;14.00;13.50;;;;;;;-141.02;100.00;40145.53;5133174;27;20283;-61
2023/08/04 00:53:00;;;;;;;13.73;13.32;;;;;;;-141.02;100.00;40135.94;5133451;27;20192;-63
2023/08/04 00:55:27;;;;;;;13.93;13.50;;;;;;;-141.02;100.00;40141.69;5133407;27;20279;-60
2023/08/04 00:57:57;;;;;;;14.10;13.60;;;;;;;-141.02;100.00;40124.44;5133322;27;20311;-62
2023/08/04 01:00:24;;;;;;;13.13;12.73;;;;;;;-141.02;100.00;40168.53;5132967;27;20197;-65
2023/08/04 01:02:51;;;;;;;13.60;13.20;;;;;;;-141.02;100.00;40147.44;5133408;27;20224;-65
2023/08/04 01:05:18;;;;;;;13.85;13.45;;;;;;;-141.02;100.00;40157.03;5133287;27;20224;-63
2023/08/04 01:07:54;;;;;;;13.77;13.38;;;;;;;-141.02;100.00;40157.03;5133308;27;20196;-64
2023/08/04 01:10:27;;;;;;;13.77;13.38;;;;;;;-141.02;100.00;40157.03;5133113;27;20188;-60
2023/08/04 01:13:01;;;;;;;13.82;13.43;;;;;;;-141.02;100.00;40149.38;5133254;28;20270;-61
2023/08/04 01:15:29;;;;;;;13.50;13.10;;;;;;;-141.02;100.00;40153.19;5133180;28;20268;-67
2023/08/04 01:17:56;;;;;;;13.55;13.15;;;;;;;-141.02;100.00;40185.81;5132809;28;20344;-61
2023/08/04 01:20:23;;;;;;;13.60;13.20;;;;;;;-141.02;100.00;40149.38;5132799;28;20192;-61
2023/08/04 01:22:52;;;;;;;13.40;13.00;;;;;;;-141.02;100.00;40147.44;5132783;28;20650;-60
2023/08/04 01:25:24;;;;;;;13.50;13.10;;;;;;;-141.02;100.00;40126.34;5132789;28;20645;-62
2023/08/04 01:27:56;;;;;;;13.20;12.80;;;;;;;-141.02;100.00;40181.97;5133059;28;20184;-60
2023/08/04 01:30:25;;;;;;;13.18;12.77;;;;;;;-141.02;100.00;40095.66;5132756;28;20224;-63
2023/08/04 01:32:52;;;;;;;13.05;12.65;;;;;;;-141.02;100.00;40111.00;5132672;28;20204;-58
2023/08/04 01:35:19;;;;;;;13.25;12.85;;;;;;;-141.02;100.00;40118.66;5132736;28;20726;-60
2023/08/04 01:37:47;;;;;;;12.95;12.55;;;;;;;-141.02;100.00;40103.31;5132575;28;20228;-59
2023/08/04 01:40:15;;;;;;;13.20;12.80;;;;;;;-141.02;100.00;40095.66;5132688;28;20265;-61
2023/08/04 01:42:42;;;;;;;12.75;12.35;;;;;;;-141.02;100.00;40091.81;5132611;28;20292;-61
2023/08/04 01:45:10;;;;;;;12.60;12.20;;;;;;;-141.02;100.00;40047.69;5132623;28;20228;-59
2023/08/04 01:47:38;;;;;;;12.68;12.27;;;;;;;-141.02;100.00;40051.53;5132876;28;20192;-63
2023/08/04 01:50:07;;;;;;;12.80;12.40;;;;;;;-141.02;100.00;39995.91;5132855;28;20196;-65
2023/08/04 01:52:34;;;;;;;12.40;12.00;;;;;;;-141.02;100.00;39969.06;5132823;27;20228;-65
2023/08/04 01:55:01;;;;;;;12.70;12.30;;;;;;;-141.02;100.00;39965.22;5132854;28;20224;-65
2023/08/04 01:57:30;;;;;;;12.40;12.00;;;;;;;-141.02;100.00;39944.13;5132703;28;20228;-65
2023/08/04 01:59:57;;;;;;;12.32;11.93;;;;;;;-141.02;100.00;39947.97;5132609;28;20197;-61
2023/08/04 02:02:23;;;;;;;12.40;12.00;;;;;;;-141.02;100.00;39919.19;5132749;28;20285;-60
2023/08/04 02:04:50;;;;;;;12.52;12.13;;;;;;;-141.02;100.00;39938.38;5132801;28;20576;-66
2023/08/04 02:07:17;;;;;;;12.30;11.90;;;;;;;-141.02;100.00;39903.84;5132719;27;20253;-63
2023/08/04 02:09:44;;;;;;;12.32;11.93;;;;;;;-141.02;100.00;39896.16;5132357;28;20224;-63
2023/08/04 02:12:12;;;;;;;12.38;11.98;;;;;;;-141.02;100.00;39903.84;5132380;28;20188;-65
2023/08/04 02:14:41;;;;;;;12.40;12.00;;;;;;;-141.02;100.00;39957.53;5133435;28;20224;-65
2023/08/04 02:17:07;;;;;;;12.48;12.07;;;;;;;-141.02;100.00;39923.03;5132346;28;20283;-63
2023/08/04 02:19:34;;;;;;;12.38;11.98;;;;;;;-141.02;100.00;39923.03;5132147;28;20228;-63
2023/08/04 02:22:01;;;;;;;12.57;12.18;;;;;;;-141.02;100.00;39900.00;5133037;27;20193;-64
2023/08/04 02:24:28;;;;;;;12.73;12.32;;;;;;;-141.02;100.00;39877.00;5136270;27;20196;-66
2023/08/04 02:26:55;;;;;;;12.90;12.50;;;;;;;-141.02;100.00;39878.91;5135919;27;20198;-63
2023/08/04 02:29:22;;;;;;;13.00;12.60;;;;;;;-141.02;100.00;39901.91;5136179;27;20279;-64
2023/08/04 02:31:51;;;;;;;12.90;12.50;;;;;;;-141.02;100.00;39940.28;5135786;27;20283;-65
2023/08/04 02:34:18;;;;;;;13.05;12.65;;;;;;;-141.02;100.00;39926.84;5135832;27;20243;-61
2023/08/04 02:36:45;;;;;;;13.20;12.80;;;;;;;-141.02;100.00;39940.28;5135716;27;20192;-66
2023/08/04 02:39:12;;;;;;;12.93;12.52;;;;;;;-141.02;100.00;39947.97;5135650;27;20285;-61
2023/08/04 02:41:39;;;;;;;13.38;12.98;;;;;;;-141.02;100.00;39957.53;5135964;27;20196;-62
2023/08/04 02:44:06;;;;;;;12.93;12.52;;;;;;;-141.02;100.00;39984.41;5135916;27;20239;-66
2023/08/04 02:46:33;;;;;;;13.13;12.73;;;;;;;-141.02;100.00;39982.47;5135370;27;20789;-62
2023/08/04 02:49:02;;;;;;;12.77;12.38;;;;;;;-141.02;100.00;40028.50;5135784;27;20271;-63
2023/08/04 02:51:29;;;;;;;12.90;12.50;;;;;;;-141.02;100.00;40022.75;5135491;27;20283;-61
2023/08/04 02:53:56;;;;;;;12.75;12.35;;;;;;;-141.02;100.00;40026.59;5135404;27;20301;-60
2023/08/04 02:56:23;;;;;;;12.60;12.20;;;;;;;-141.02;100.00;40064.97;5135413;27;20262;-61
2023/08/04 02:58:50;;;;;;;11.88;11.48;;;;;;;-141.02;100.00;40095.66;5135535;27;20259;-60
2023/08/04 03:01:17;;;;;;;12.18;11.77;;;;;;;-141.02;100.00;40134.00;5135547;27;20279;-59
2023/08/04 03:03:44;;;;;;;11.55;11.20;;;;;;;-141.02;100.00;40214.59;5135200;27;20699;-63
2023/08/04 03:06:12;;;;;;;12.07;11.68;;;;;;;-141.02;100.00;40245.28;5135554;27;20199;-59
2023/08/04 03:08:40;;;;;;;11.98;11.57;;;;;;;-141.02;100.00;40327.75;5135477;27;20199;-66
2023/08/04 03:11:10;;;;;;;12.48;12.07;;;;;;;-141.02;100.00;40513.84;5135154;27;20189;-62
2023/08/04 03:13:37;;;;;;;12.10;11.70;;;;;;;-141.02;100.00;40548.38;5135026;27;20647;-62
2023/08/04 03:16:04;;;;;;;11.85;11.45;;;;;;;-141.02;100.00;40651.97;5135313;27;20192;-64
2023/08/04 03:18:31;;;;;;;12.10;11.70;;;;;;;-141.02;100.00;40740.22;5134881;27;20243;-62
2023/08/04 03:21:02;;;;;;;11.60;11.30;;;;;;;-141.02;100.00;40878.38;5135187;27;20231;-61
2023/08/04 03:23:30;;;;;;;11.00;10.70;;;;;;;-141.02;100.00;40981.97;5135222;27;20184;-63
2023/08/04 03:25:57;;;;;;;11.40;11.10;;;;;;;-141.02;100.00;41074.06;5134806;27;20227;-65
2023/08/04 03:28:24;;;;;;;11.25;10.95;;;;;;;-141.02;100.00;41212.22;5134711;27;20279;-64
2023/08/04 03:30:51;;;;;;;11.13;10.82;;;;;;;-141.02;100.00;41335.03;5134661;27;20227;-62
2023/08/04 03:33:19;;;;;;;11.00;10.70;;;;;;;-141.02;100.00;41358.06;5134051;27;20250;-63
2023/08/04 03:35:46;;;;;;;11.35;11.05;;;;;;;-141.02;100.00;41335.03;5134312;27;20701;-62
2023/08/04 03:38:13;;;;;;;11.48;11.18;;;;;;;-141.02;100.00;41394.50;5134750;27;20260;-61
2023/08/04 03:40:42;;;;;;;11.27;10.98;;;;;;;-141.02;100.00;41454.00;5134554;27;20675;-65
2023/08/04 03:43:09;;;;;;;11.55;11.25;;;;;;;-141.02;100.00;41454.00;5134372;27;20647;-66
2023/08/04 03:45:36;;;;;;;11.32;11.02;;;;;;;-141.02;100.00;41548.03;5134162;27;20662;-66
2023/08/04 03:48:03;;;;;;;12.40;12.00;;;;;;;-141.02;100.00;41592.16;5134630;27;20284;-64
2023/08/04 03:50:30;;;;;;;11.88;11.48;;;;;;;-141.02;100.00;41715.00;5134348;27;20228;-66
2023/08/04 03:52:57;;;;;;;11.73;11.43;;;;;;;-141.02;100.00;42129.53;5134299;27;20664;-66
2023/08/04 03:59:35;;;;;;;12.30;11.90;;;;;;;-141.02;100.00;42300.38;5134119;27;20227;-65
2023/08/04 04:06:16;;;;;;;14.80;14.30;;;;;;;-141.02;100.00;42338.75;5133987;27;20187;-65
2023/08/04 04:09:08;;;;;;;15.05;14.55;;;;;;;-141.02;100.00;42415.53;5133816;27;20219;-66
2023/08/04 04:12:04;;;;;;;14.70;14.20;;;;;;;-141.02;100.00;42421.28;5134034;27;20197;-63
2023/08/04 04:14:57;;;;;;;16.15;15.55;;;;;;;-141.02;100.00;42480.81;5133779;27;20196;-62
2023/08/04 04:17:49;;;;;;;15.88;15.27;;;;;;;-141.02;99.10;42532.63;5133732;27;20670;-66
2023/08/04 04:20:22;;;;;;;16.55;15.85;;;;;;;-141.02;97.54;42563.34;5133801;27;20654;-66
2023/08/04 04:30:16;;;;;;;17.42;16.73;;;;;;;-141.02;95.33;42697.72;5134309;27;20237;-66
2023/08/04 04:33:10;;;;;;;17.40;16.70;;;;;;;-141.02;94.49;42759.16;5133439;27;20231;-65
2023/08/04 04:36:22;;;;;;;17.27;16.58;;;;;;;-141.02;92.71;42820.56;5133786;27;20242;-65
2023/08/04 04:39:39;;;;;;;17.40;16.70;;;;;;;-141.02;91.90;42851.28;5133338;27;20276;-64
2023/08/04 04:42:29;;;;;;;17.42;16.73;;;;;;;-141.02;90.41;42941.53;5133371;27;20188;-62
2023/08/04 04:45:27;;;;;;;17.73;16.92;;;;;;;-141.02;88.87;42953.03;5126560;27;20316;-65
2023/08/04 04:51:37;;;;;;;17.98;17.17;;;;;;;-141.02;87.57;43146.94;5092174;28;20216;-65
2023/08/04 04:54:51;;;;;;;17.45;16.75;;;;;;;-141.02;86.63;43241.03;5092365;28;20641;-66
2023/08/04 04:57:39;;;;;;;17.95;17.15;;;;;;;-141.02;85.94;43116.22;5092235;28;20198;-66
2023/08/04 05:00:15;;;;;;;18.05;17.25;;;;;;;-141.02;85.84;43164.22;5092108;28;20695;-64
2023/08/04 05:02:42;;;;;;;18.05;17.25;;;;;;;-141.02;86.89;43170.00;5092196;28;20197;-58
2023/08/04 05:05:10;;;;;;;17.95;17.15;;;;;;;-141.02;87.47;43231.44;5092216;28;20296;-58
2023/08/04 05:07:38;;;;;;;17.30;16.58;;;;;;;-141.02;86.25;43204.56;5092183;28;20285;-58
2023/08/04 05:10:06;;;;;;;18.05;17.25;;;;;;;-141.02;85.34;43300.56;5092398;28;20286;-61
2023/08/04 05:12:33;;;;;;;18.08;17.27;;;;;;;-141.02;83.91;43329.34;5092024;28;20286;-65
2023/08/04 05:15:00;;;;;;;18.23;17.42;;;;;;;-141.02;84.67;43275.59;5092029;28;20232;-62
2023/08/04 05:17:27;;;;;;;17.88;17.08;;;;;;;-141.02;85.35;43413.84;5091928;28;20631;-62
2023/08/04 05:19:54;;;;;;;17.90;17.10;;;;;;;-141.02;85.13;43419.59;5092246;28;20248;-59
2023/08/04 05:22:21;;;;;;;18.27;17.48;;;;;;;-141.02;85.49;43335.09;5091959;28;20196;-60
2023/08/04 05:24:49;;;;;;;18.30;17.50;;;;;;;-141.02;84.78;43365.81;5092241;28;20229;-60
2023/08/04 05:27:16;;;;;;;18.77;17.90;;;;;;;-141.02;84.94;43369.66;5091944;28;20246;-62
2023/08/04 05:29:43;;;;;;;18.08;17.27;;;;;;;-141.02;84.43;43415.75;5092123;28;20660;-61
2023/08/04 05:32:10;;;;;;;18.27;17.48;;;;;;;-141.02;83.50;43442.63;5091895;28;20635;-59
2023/08/04 05:34:37;;;;;;;18.15;17.35;;;;;;;-141.02;84.25;43404.22;5091855;28;20617;-60
2023/08/04 05:37:05;;;;;;;18.05;17.25;;;;;;;-141.02;84.11;43396.56;5092154;28;20259;-59
2023/08/04 05:39:33;;;;;;;18.25;17.45;;;;;;;-141.02;82.98;43300.56;5091742;28;20226;-61
2023/08/04 05:42:02;;;;;;;18.35;17.55;;;;;;;-141.02;83.80;43319.75;5092650;28;20289;-67
2023/08/04 05:44:29;;;;;;;18.13;17.33;;;;;;;-141.02;84.27;43321.66;5091815;28;20194;-66
2023/08/04 05:46:56;;;;;;;18.13;17.33;;;;;;;-141.02;83.89;43281.34;5116598;28;20698;-60
2023/08/04 05:49:23;;;;;;;18.10;17.30;;;;;;;-141.02;84.79;43337.03;5132566;28;20188;-61
2023/08/04 05:51:50;;;;;;;18.08;17.27;;;;;;;-141.02;85.50;43312.06;5132636;28;20232;-60
2023/08/04 05:54:17;;;;;;;17.90;17.10;;;;;;;-141.02;85.58;43319.75;5132534;28;20224;-60
2023/08/04 05:56:44;;;;;;;17.90;17.10;;;;;;;-141.02;85.41;43354.31;5133242;27;20277;-64
2023/08/04 05:59:13;;;;;;;17.65;16.85;;;;;;;-141.02;84.28;43394.63;5136397;27;20315;-59
2023/08/04 06:01:40;;;;;;;17.52;16.73;;;;;;;-141.02;84.69;43434.94;5136804;27;20200;-64
2023/08/04 06:04:07;;;;;;;17.08;16.38;;;;;;;-141.02;84.48;43388.88;5136781;27;20615;-62
2023/08/04 06:06:34;;;;;;;17.52;16.73;;;;;;;-141.02;83.72;43346.63;5136636;27;20200;-59
2023/08/04 06:09:01;;;;;;;18.45;17.65;;;;;;;-141.02;82.46;43421.50;5136367;27;20200;-61
2023/08/04 06:11:28;;;;;;;18.05;17.25;;;;;;;-141.02;83.50;43446.47;5136218;27;20623;-65
2023/08/04 06:13:56;;;;;;;18.80;18.00;;;;;;;-141.02;85.59;43398.47;5136237;27;20188;-66
2023/08/04 06:16:24;;;;;;;17.90;17.10;;;;;;;-141.02;84.47;43454.16;5136409;27;20200;-66
2023/08/04 06:18:51;;;;;;;18.30;17.50;;;;;;;-141.02;84.71;43396.56;5136406;27;20288;-62
2023/08/04 06:21:18;;;;;;;18.35;17.55;;;;;;;-141.02;84.93;43427.28;5136125;27;20208;-67
2023/08/04 06:23:46;;;;;;;18.20;17.40;;;;;;;-141.02;85.38;43358.16;5135993;27;20188;-63
2023/08/04 06:26:13;;;;;;;17.95;17.15;;;;;;;-141.02;84.08;43519.44;5135934;27;20228;-67
2023/08/04 06:28:41;;;;;;;18.27;17.48;;;;;;;-141.02;81.68;43434.94;5135893;27;20287;-63
2023/08/04 06:31:08;;;;;;;18.42;17.63;;;;;;;-141.02;81.29;43665.38;5136171;27;20241;-63
2023/08/04 06:33:36;;;;;;;17.98;17.17;;;;;;;-141.02;79.19;43626.97;5135841;27;20283;-65
2023/08/04 06:36:03;;;;;;;18.40;17.60;;;;;;;-141.02;77.92;43676.91;5136137;27;20663;-66
2023/08/04 06:38:32;;;;;;;18.40;17.60;;;;;;;-141.02;78.10;43769.06;5135981;27;20253;-64
2023/08/04 06:40:59;;;;;;;18.30;17.50;;;;;;;-141.02;75.93;43840.13;5135949;27;20224;-66
2023/08/04 06:43:26;;;;;;;18.55;17.65;;;;;;;-141.02;75.83;43705.69;5135643;27;20193;-65
2023/08/04 06:45:53;;;;;;;18.20;17.40;;;;;;;-141.02;76.42;43707.63;5135332;27;20268;-68
2023/08/04 06:48:21;;;;;;;18.35;17.55;;;;;;;-141.02;75.61;43799.78;5135564;27;20196;-66
2023/08/04 06:50:50;;;;;;;18.45;17.65;;;;;;;-141.02;74.49;43782.50;5135732;27;20200;-65
2023/08/04 06:53:17;;;;;;;18.52;17.73;;;;;;;-141.02;75.68;43826.66;5135376;27;20227;-64
2023/08/04 06:55:44;;;;;;;18.88;17.98;;;;;;;-141.02;74.67;43938.06;5135427;27;20683;-66
2023/08/04 06:58:11;;;;;;;19.02;18.13;;;;;;;-141.02;73.69;43984.16;5135616;27;20223;-59
2023/08/04 07:00:38;;;;;;;18.63;17.83;;;;;;;-141.02;72.98;44024.47;5135595;27;20263;-66
2023/08/04 07:03:05;;;;;;;19.00;18.10;;;;;;;-141.02;72.28;43893.88;5135518;27;20188;-67
2023/08/04 07:05:32;;;;;;;18.30;17.50;;;;;;;-141.02;73.94;43980.31;5135216;27;20706;-68
2023/08/04 07:08:00;;;;;;;18.83;17.92;;;;;;;-141.02;72.16;44003.34;5135237;27;20265;-68
2023/08/04 07:10:27;;;;;;;19.25;18.33;;;;;;;-141.02;72.09;44030.22;5135397;27;20223;-67
2023/08/04 07:12:54;;;;;;;19.08;18.17;;;;;;;-141.02;71.31;43984.16;5135365;27;20228;-67
2023/08/04 07:15:24;;;;;;;19.63;18.63;;;;;;;-141.02;70.27;44072.47;5134948;27;20284;-62
2023/08/04 07:17:51;;;;;;;19.45;18.48;;;;;;;-141.02;71.01;44306.78;5135268;27;20189;-59
2023/08/04 07:20:18;;;;;;;19.75;18.75;;;;;;;-141.02;69.93;44268.38;5135113;27;20695;-69
2023/08/04 07:22:45;;;;;;;20.48;19.38;;;;;;;-141.02;68.69;44160.81;5134767;27;20653;-66
2023/08/04 07:25:14;;;;;;;19.83;18.83;;;;;;;-141.02;67.01;44066.72;5134796;27;20245;-66
2023/08/04 07:27:42;;;;;;;19.85;18.85;;;;;;;-141.02;65.98;44037.91;5134735;27;20284;-66
2023/08/04 07:30:10;;;;;;;19.55;18.55;;;;;;;-141.02;63.89;43855.47;5134668;27;20196;-65
2023/08/04 08:05:08;;;;;;;19.30;18.38;;;;;;;-141.02;59.37;44297.19;5151621;27;20542;-67
2023/08/04 08:07:35;;;;;;;20.17;19.17;;;;;;;-141.02;58.25;44164.66;5151554;27;20188;-67
2023/08/04 08:10:02;;;;;;;19.50;18.60;;;;;;;-141.02;57.24;44072.47;5150970;27;20195;-67
2023/08/04 08:12:30;;;;;;;20.23;19.23;;;;;;;-141.02;56.71;44156.97;5151145;27;20218;-67
2023/08/04 08:14:57;;;;;;;20.63;19.60;;;;;;;-141.02;55.15;44210.75;5151101;27;20192;-67
2023/08/04 08:17:24;;;;;;;20.33;19.33;;;;;;;-141.02;54.85;44176.19;5150776;27;20192;-67
2023/08/04 08:19:52;;;;;;;20.50;19.50;;;;;;;-141.02;55.57;44356.72;5151052;27;20196;-68
2023/08/04 08:22:20;;;;;;;20.27;19.27;;;;;;;-141.02;54.96;44483.47;5150633;27;20581;-68
2023/08/04 08:24:48;;;;;;;20.10;19.10;;;;;;;-141.02;54.71;44529.59;5150616;27;20199;-67
2023/08/04 08:27:15;;;;;;;20.00;19.00;;;;;;;-141.02;54.40;44592.97;5150545;27;20260;-67
2023/08/04 08:29:42;;;;;;;20.02;18.98;;;;;;;-141.02;53.02;44243.41;5150824;27;20245;-67
2023/08/04 08:32:09;;;;;;;19.85;18.85;;;;;;;-141.02;53.66;44295.25;5150799;27;20290;-67
2023/08/04 08:34:36;;;;;;;19.58;18.58;;;;;;;-141.02;52.98;44064.81;5150648;27;20284;-68
2023/08/04 08:37:03;;;;;;;19.73;18.73;;;;;;;-141.02;53.40;44360.56;5150745;27;20192;-67
2023/08/04 08:39:31;;;;;;;19.92;18.90;;;;;;;-141.02;51.92;44619.84;5150260;27;20202;-67
2023/08/04 08:41:58;;;;;;;20.15;19.05;;;;;;;-141.02;52.29;44349.03;5150647;27;20283;-68
2023/08/04 08:44:25;;;;;;;19.88;18.88;;;;;;;-141.02;50.93;44256.84;5150496;27;20196;-67
2023/08/04 08:46:53;;;;;;;19.75;18.75;;;;;;;-141.02;52.47;44249.16;5150544;27;20256;-67
2023/08/04 08:49:25;;;;;;;19.98;18.95;;;;;;;-141.02;52.10;44262.63;5150132;27;20218;-67
2023/08/04 08:51:54;;;;;;;23.02;21.50;;;;;;;-141.02;52.92;44518.06;5150493;27;20248;-67
2023/08/04 08:54:21;;;;;;;22.45;20.85;;;;;;;-141.02;51.42;44385.53;5150291;27;20219;-67
2023/08/04 08:56:51;;;;;;;22.55;20.95;;;;;;;-141.02;50.31;44445.06;5150288;27;20192;-68
2023/08/04 08:59:18;;;;;;;20.25;19.17;;;;;;;-141.02;50.70;44571.84;5150267;27;20220;-68
2023/08/04 09:01:46;;;;;;;20.35;19.25;;;;;;;-141.02;50.91;44569.91;5149877;27;20200;-67
2023/08/04 09:04:13;;;;;;;20.00;19.00;;;;;;;-141.02;50.30;44644.81;5146225;27;20297;-67
2023/08/04 09:06:41;;;;;;;20.02;19.02;;;;;;;-141.02;51.29;44562.22;5136272;27;20192;-68
2023/08/04 09:09:08;;;;;;;20.33;19.33;;;;;;;-141.02;48.69;44464.28;5135961;27;20196;-68
2023/08/04 09:11:35;;;;;;;21.80;20.70;;;;;;;-141.02;50.05;44660.19;5136238;27;20203;-69
2023/08/04 09:14:07;;;;;;;22.50;21.40;;;;;;;-141.02;48.93;44854.19;5135770;27;20263;-72
2023/08/04 09:16:36;;;;;;;22.35;21.25;;;;;;;-141.02;48.58;44727.41;5136185;27;20212;-67
2023/08/04 09:19:05;;;;;;;22.10;21.00;;;;;;;-141.02;48.33;44675.56;5135926;27;20567;-69
2023/08/04 09:21:32;;;;;;;23.05;21.80;;;;;;;-141.02;48.52;44689.00;5135979;27;20196;-67
2023/08/04 09:23:59;;;;;;;22.10;21.00;;;;;;;-141.02;48.91;44487.31;5135917;27;20568;-68
2023/08/04 09:26:28;;;;;;;22.90;21.80;;;;;;;-141.02;48.18;44571.84;5135565;27;20223;-67
2023/08/04 09:29:05;;;;;;;22.52;21.42;;;;;;;-141.02;47.23;44519.97;5135898;27;20196;-67
2023/08/04 09:46:25;;;;;;;20.77;19.67;;;;;;;-141.02;45.27;44614.09;5151620;27;20922;-65
2023/08/04 09:48:57;;;;;;;20.48;19.48;;;;;;;-141.02;44.53;44404.75;5151317;27;20611;-66
2023/08/04 09:51:25;;;;;;;20.40;19.40;;;;;;;-141.02;44.53;44398.97;5150925;27;20609;-66
2023/08/04 09:53:54;;;;;;;20.27;19.27;;;;;;;-141.02;44.66;44448.91;5151144;27;20270;-65
2023/08/04 09:56:23;;;;;;;23.20;22.02;;;;;;;-141.02;45.34;44698.59;5150738;27;20187;-67
2023/08/04 09:58:51;;;;;;;23.10;21.90;;;;;;;-141.02;44.93;44859.97;5151099;27;20195;-66
2023/08/04 10:01:19;;;;;;;22.42;21.33;;;;;;;-141.02;44.76;44813.84;5150976;27;20199;-65
2023/08/04 10:03:51;;;;;;;22.52;21.33;;;;;;;-141.02;44.26;44785.03;5150651;27;20282;-66
2023/08/04 10:06:18;;;;;;;21.05;19.95;;;;;;;-141.02;43.74;44602.56;5150562;27;20274;-67
2023/08/04 10:08:48;;;;;;;22.75;21.55;;;;;;;-141.02;43.02;44710.13;5150534;27;20286;-66
2023/08/04 10:11:15;;;;;;;22.52;21.33;;;;;;;-141.02;43.02;44660.19;5150505;27;20252;-66
2023/08/04 10:13:44;;;;;;;22.00;20.80;;;;;;;-141.02;42.73;44439.31;5150638;27;20196;-67
2023/08/04 10:16:13;;;;;;;28.92;27.08;;;;;;;-141.02;43.45;44629.47;5150694;27;20244;-65
2023/08/04 10:18:51;;;;;;;20.88;19.77;;;;;;;-141.02;43.43;44589.13;5150316;27;20199;-66
2023/08/04 10:21:20;;;;;;;22.75;21.55;;;;;;;-141.02;43.51;44798.50;5150311;27;20179;-71
2023/08/04 10:23:47;;;;;;;22.73;21.52;;;;;;;-141.02;44.24;44422.03;5150174;27;20207;-67
2023/08/04 10:26:15;;;;;;;21.85;20.75;;;;;;;-141.02;43.72;44614.09;5150531;27;20200;-66
2023/08/04 10:29:00;;;;;;;29.60;27.73;;;;;;;-141.02;44.25;44752.38;5150400;27;20195;-66
2023/08/04 10:31:44;;;;;;;22.80;21.60;;;;;;;-141.02;44.42;44869.56;5149257;27;20197;-65
2023/08/04 10:34:25;;;;;;;22.45;21.25;;;;;;;-141.02;43.96;45073.19;5150078;27;20207;-66
2023/08/04 10:36:59;;;;;;;22.67;21.13;;;;;;;-141.02;43.89;44794.66;5150026;27;20671;-65
2023/08/04 10:39:28;;;;;;;19.95;18.85;;;;;;;-141.02;44.69;44518.06;5149957;27;20278;-66
2023/08/04 10:41:55;;;;;;;19.52;18.42;;;;;;;-141.02;44.25;44667.88;5149769;27;20282;-66
2023/08/04 10:44:25;;;;;;;19.27;18.17;;;;;;;-141.02;43.56;44583.38;5149683;27;20708;-66
2023/08/04 10:46:53;;;;;;;19.95;18.85;;;;;;;-141.02;43.33;44690.94;5138650;27;20280;-67
2023/08/04 10:49:22;;;;;;;19.25;18.15;;;;;;;-141.02;43.70;44552.63;5136276;27;20278;-65
2023/08/04 10:51:49;;;;;;;19.75;18.65;;;;;;;-141.02;43.77;44541.09;5136296;27;20603;-66
2023/08/04 10:54:16;;;;;;;19.35;18.25;;;;;;;-141.02;43.60;44629.47;5136033;27;20223;-66
2023/08/04 10:56:46;;;;;;;19.58;18.48;;;;;;;-141.02;43.17;44464.28;5136167;27;20248;-66
2023/08/04 10:59:13;;;;;;;20.20;19.10;;;;;;;-141.02;43.50;44783.13;5135757;27;20537;-66
2023/08/04 11:01:40;;;;;;;19.73;18.63;;;;;;;-141.02;43.03;44944.47;5136059;27;20669;-66
2023/08/04 11:04:08;;;;;;;20.02;18.92;;;;;;;-141.02;42.62;44852.28;5135997;27;20187;-66
2023/08/04 11:06:37;;;;;;;23.02;21.58;;;;;;;-141.02;43.20;44767.75;5135554;27;20245;-66
2023/08/04 11:09:04;;;;;;;19.42;18.33;;;;;;;-141.02;43.54;44687.09;5135604;27;20196;-67
2023/08/04 11:11:32;;;;;;;19.48;18.38;;;;;;;-141.02;42.70;44810.00;5135439;27;20248;-66
2023/08/04 11:13:59;;;;;;;19.60;18.50;;;;;;;-141.02;42.50;44633.31;5135378;27;20294;-66
2023/08/04 11:16:26;;;;;;;19.40;18.30;;;;;;;-141.02;42.33;44708.22;5135388;27;20287;-66
2023/08/04 11:18:53;;;;;;;19.73;18.63;;;;;;;-141.02;42.87;44710.13;5135711;27;20203;-66
2023/08/04 11:21:20;;;;;;;19.70;18.55;;;;;;;-141.02;42.37;44660.19;5135288;27;20187;-67
2023/08/04 11:23:49;;;;;;;19.50;18.40;;;;;;;-141.02;42.95;44612.19;5135563;27;20195;-66
2023/08/04 11:26:17;;;;;;;19.27;18.17;;;;;;;-141.02;42.50;44702.44;5135239;27;20746;-66
2023/08/04 11:28:44;;;;;;;19.80;18.70;;;;;;;-141.02;42.50;44738.94;5135536;27;20231;-66
2023/08/04 11:31:11;;;;;;;20.27;19.10;;;;;;;-141.02;41.81;44737.03;5135144;27;20231;-66
2023/08/04 11:33:44;;;;;;;19.83;18.73;;;;;;;-141.02;41.92;44746.63;5135084;27;20192;-67
2023/08/04 11:36:11;;;;;;;24.92;23.27;;;;;;;-141.02;41.77;44927.19;5135445;27;20306;-66
2023/08/04 11:38:39;;;;;;;19.30;18.20;;;;;;;-141.02;41.64;44798.50;5135333;27;20649;-66
2023/08/04 11:41:10;;;;;;;19.60;18.50;;;;;;;-141.02;41.39;44779.28;5135001;27;20669;-65
2023/08/04 11:43:38;;;;;;;19.40;18.30;;;;;;;-141.02;41.73;44560.31;5135287;27;20266;-67
2023/08/04 11:46:06;;;;;;;19.58;18.48;;;;;;;-141.02;42.47;44560.31;5134698;27;20228;-66
2023/08/04 11:48:35;;;;;;;19.55;18.40;;;;;;;-141.02;41.57;44859.97;5135144;27;20199;-66
2023/08/04 11:51:03;;;;;;;19.45;18.35;;;;;;;-141.02;41.51;44932.97;5134689;27;20191;-66
2023/08/04 11:53:30;;;;;;;19.55;18.40;;;;;;;-141.02;41.31;44756.22;5135018;27;20275;-66
2023/08/04 11:55:58;;;;;;;19.80;18.70;;;;;;;-141.02;41.77;44698.59;5134837;27;20228;-66
2023/08/04 11:58:36;;;;;;;19.63;18.45;;;;;;;-141.02;41.80;44752.38;5133516;27;20199;-66
2023/08/04 12:01:03;;;;;;;20.17;18.98;;;;;;;-141.02;41.37;44744.72;5134935;27;20240;-66
2023/08/04 12:03:43;;;;;;;21.55;20.25;;;;;;;-141.02;41.39;44875.31;5134816;27;20613;-66
2023/08/04 12:06:18;;;;;;;19.70;18.60;;;;;;;-141.02;41.66;44729.34;5134809;27;20196;-66
2023/08/04 12:08:49;;;;;;;19.23;18.13;;;;;;;-141.02;41.45;44767.75;5134726;27;20270;-66
2023/08/04 12:11:16;;;;;;;19.80;18.60;;;;;;;-141.02;41.48;44817.69;5134299;27;20677;-66
2023/08/04 12:13:44;;;;;;;19.52;18.42;;;;;;;-141.02;41.30;44687.09;5134603;27;20192;-66
2023/08/04 12:16:12;;;;;;;20.23;19.08;;;;;;;-141.02;41.67;43888.13;5134115;27;20223;-66